Time;durP1;ratioP1;P1;durP2;ratioP2;P2;SDS_P1;SDS_P2;PMS_P1;PMS_P2;Temp;Humidity;BMP_temperature;BMP_pressure;BME280_temperature;BME280_humidity;BME280_pressure;Samples;Min_cycle;Max_cycle;Signal;HPM_P1;HPM_P2
2021/05/16 00:01:48;;;;;;;6.20;2.30;;;10.00;99.90;;;;;;5038072;28;20476;-71
2021/05/16 00:04:16;;;;;;;3.28;1.98;;;10.00;99.90;;;;;;5037161;28;20437;-71
2021/05/16 00:06:44;;;;;;;2.95;1.85;;;10.10;99.90;;;;;;5037665;28;20025;-71
2021/05/16 00:09:11;;;;;;;2.88;1.50;;;10.10;99.90;;;;;;5038082;28;20463;-71
2021/05/16 00:11:39;;;;;;;3.17;1.38;;;10.00;99.90;;;;;;5037707;28;20429;-71
2021/05/16 00:14:06;;;;;;;5.28;1.50;;;10.00;99.90;;;;;;5036898;28;20358;-71
2021/05/16 00:16:34;;;;;;;4.28;1.60;;;10.00;99.90;;;;;;5036958;28;20105;-71
2021/05/16 00:19:02;;;;;;;3.95;1.67;;;9.90;99.90;;;;;;5036905;28;20044;-71
2021/05/16 00:21:30;;;;;;;3.15;1.58;;;9.90;99.90;;;;;;5036678;28;20022;-71
2021/05/16 00:23:58;;;;;;;5.35;1.60;;;9.90;99.90;;;;;;5018930;28;20413;-71
2021/05/16 00:26:26;;;;;;;2.40;1.52;;;9.80;99.90;;;;;;5036900;28;20029;-71
2021/05/16 00:28:53;;;;;;;2.30;1.48;;;9.80;99.90;;;;;;5018931;28;20112;-71
2021/05/16 00:31:20;;;;;;;3.65;1.98;;;9.80;99.90;;;;;;5036741;28;20026;-71
2021/05/16 00:33:48;;;;;;;2.17;1.58;;;9.80;99.90;;;;;;5016288;28;20064;-71
2021/05/16 00:36:15;;;;;;;5.65;1.50;;;9.70;99.90;;;;;;5018081;28;20108;-71
2021/05/16 00:38:43;;;;;;;5.68;1.77;;;9.70;99.90;;;;;;5016413;28;20034;-71
2021/05/16 00:41:10;;;;;;;3.58;1.55;;;9.60;99.90;;;;;;5016442;28;20072;-71
2021/05/16 00:43:38;;;;;;;3.80;1.75;;;9.60;99.90;;;;;;5017529;28;20029;-71
2021/05/16 00:46:09;;;;;;;4.30;2.38;;;9.60;99.90;;;;;;5017654;28;20365;-71
2021/05/16 00:48:37;;;;;;;6.45;2.85;;;9.70;99.90;;;;;;5015376;28;20032;-71
2021/05/16 00:51:06;;;;;;;2.67;1.75;;;9.60;99.90;;;;;;5016754;28;20084;-72
2021/05/16 00:53:34;;;;;;;5.63;2.22;;;9.60;99.90;;;;;;5015360;28;20307;-72
2021/05/16 00:56:01;;;;;;;4.85;1.75;;;9.60;99.90;;;;;;5016774;28;20338;-72
2021/05/16 00:58:29;;;;;;;3.58;2.25;;;9.60;99.90;;;;;;5015472;28;20076;-72
2021/05/16 01:00:56;;;;;;;4.82;2.20;;;9.60;99.90;;;;;;5015332;28;20026;-71
2021/05/16 01:03:24;;;;;;;6.10;1.88;;;9.70;99.90;;;;;;5017081;28;20028;-71
2021/05/16 01:05:52;;;;;;;5.32;2.28;;;9.60;99.90;;;;;;5017258;28;20418;-71
2021/05/16 01:08:19;;;;;;;5.53;2.20;;;9.60;99.90;;;;;;5017703;28;20326;-72
2021/05/16 01:10:48;;;;;;;4.53;2.15;;;9.60;99.90;;;;;;5017695;28;20030;-71
2021/05/16 01:13:16;;;;;;;4.20;2.20;;;9.60;99.90;;;;;;5017177;28;20025;-71
2021/05/16 01:15:46;;;;;;;6.30;2.08;;;9.60;99.90;;;;;;5017528;28;20169;-71
2021/05/16 01:18:15;;;;;;;5.75;2.70;;;9.60;99.90;;;;;;5019630;28;20157;-71
2021/05/16 01:20:48;;;;;;;3.70;2.00;;;9.50;99.90;;;;;;5020264;28;20019;-71
2021/05/16 01:23:29;;;;;;;6.10;2.30;;;9.40;99.90;;;;;;5020530;28;20099;-71
2021/05/16 01:25:58;;;;;;;4.15;2.38;;;9.40;99.90;;;;;;5019826;28;20445;-72
2021/05/16 01:28:25;;;;;;;5.80;2.20;;;9.30;99.90;;;;;;5020529;28;20029;-71
2021/05/16 01:30:53;;;;;;;5.38;1.98;;;9.30;99.90;;;;;;5020071;28;20054;-71
2021/05/16 01:33:21;;;;;;;3.60;1.90;;;9.30;99.90;;;;;;5033983;28;20456;-71
2021/05/16 01:35:49;;;;;;;5.38;2.28;;;9.30;99.90;;;;;;5039701;28;20326;-71
2021/05/16 01:38:16;;;;;;;5.53;2.30;;;9.20;99.90;;;;;;5040385;28;20364;-71
2021/05/16 01:40:44;;;;;;;5.15;2.05;;;9.20;99.90;;;;;;5040854;28;20021;-71
2021/05/16 01:43:14;;;;;;;5.00;2.00;;;9.20;99.90;;;;;;5022725;28;20017;-71
2021/05/16 01:45:42;;;;;;;5.18;2.08;;;9.20;99.90;;;;;;5040208;28;20022;-71
2021/05/16 01:48:10;;;;;;;7.97;1.90;;;9.20;99.90;;;;;;5040066;28;20056;-71
2021/05/16 01:50:40;;;;;;;6.00;2.00;;;9.20;99.90;;;;;;5039998;28;20025;-71
2021/05/16 01:53:09;;;;;;;5.15;2.25;;;9.30;99.90;;;;;;5021852;28;20072;-71
2021/05/16 01:55:38;;;;;;;6.53;2.33;;;9.30;99.90;;;;;;5039031;28;20094;-71
2021/05/16 01:58:05;;;;;;;6.05;2.05;;;9.30;99.90;;;;;;5021589;28;20026;-72
2021/05/16 02:00:44;;;;;;;10.68;2.97;;;9.40;99.90;;;;;;5039991;28;20320;-71
2021/05/16 02:03:13;;;;;;;7.22;2.65;;;9.40;99.90;;;;;;5038983;28;20021;-71
2021/05/16 02:05:40;;;;;;;7.78;2.53;;;9.50;99.90;;;;;;5038914;28;20025;-71
2021/05/16 02:08:08;;;;;;;10.02;2.80;;;9.50;99.90;;;;;;5039430;28;20461;-71
2021/05/16 02:10:36;;;;;;;6.95;2.58;;;9.60;99.90;;;;;;5040025;28;20057;-71
2021/05/16 02:13:04;;;;;;;5.65;1.90;;;9.60;99.90;;;;;;5039874;28;20417;-71
2021/05/16 02:15:32;;;;;;;4.35;2.08;;;9.60;99.90;;;;;;5022116;28;20034;-71
2021/05/16 02:18:02;;;;;;;6.70;2.90;;;9.60;99.90;;;;;;5039558;28;20025;-71
2021/05/16 02:20:30;;;;;;;7.53;3.13;;;9.60;99.90;;;;;;5039523;28;20021;-72
2021/05/16 02:22:58;;;;;;;7.65;2.80;;;9.60;99.90;;;;;;5022059;28;20025;-71
2021/05/16 02:25:26;;;;;;;5.88;2.60;;;9.60;99.90;;;;;;5038934;28;20483;-71
2021/05/16 02:27:53;;;;;;;4.85;2.25;;;9.60;99.90;;;;;;5038227;28;20029;-71
2021/05/16 02:30:23;;;;;;;8.00;2.60;;;9.60;99.90;;;;;;5038430;28;20108;-71
2021/05/16 02:32:51;;;;;;;11.07;2.80;;;9.60;99.90;;;;;;5038625;28;20088;-71
2021/05/16 02:35:19;;;;;;;7.88;2.60;;;9.60;99.90;;;;;;5038354;28;20021;-71
2021/05/16 02:37:47;;;;;;;11.20;3.80;;;9.70;99.90;;;;;;5038295;28;20021;-71
2021/05/16 02:40:15;;;;;;;10.77;3.13;;;9.70;99.90;;;;;;5038807;28;20025;-71
2021/05/16 02:42:42;;;;;;;6.18;2.75;;;9.70;99.90;;;;;;5038955;28;20025;-72
2021/05/16 02:45:10;;;;;;;9.02;2.92;;;9.70;99.90;;;;;;5039091;28;20108;-71
2021/05/16 02:47:38;;;;;;;11.02;3.22;;;9.70;99.90;;;;;;5038959;28;20057;-71
2021/05/16 02:50:07;;;;;;;10.48;3.00;;;9.70;99.90;;;;;;5038981;28;20021;-72
2021/05/16 02:52:35;;;;;;;5.90;2.90;;;9.70;99.90;;;;;;5021459;28;20486;-71
2021/05/16 02:55:03;;;;;;;8.05;2.83;;;9.70;99.90;;;;;;5038864;28;20082;-71
2021/05/16 02:57:31;;;;;;;9.68;3.20;;;9.80;99.90;;;;;;5039325;28;20044;-71
2021/05/16 02:59:58;;;;;;;9.88;3.72;;;9.80;99.90;;;;;;5038328;28;20028;-71
2021/05/16 03:02:26;;;;;;;8.23;3.08;;;9.80;99.90;;;;;;5038044;28;20021;-71
2021/05/16 03:04:55;;;;;;;6.88;3.03;;;9.80;99.90;;;;;;5020247;28;20022;-71
2021/05/16 03:07:22;;;;;;;7.25;3.92;;;9.80;99.90;;;;;;5038227;28;20406;-71
2021/05/16 03:09:50;;;;;;;8.40;4.07;;;9.80;99.90;;;;;;5037704;28;20480;-71
2021/05/16 03:12:18;;;;;;;7.50;2.83;;;9.80;99.90;;;;;;5037909;28;20052;-71
2021/05/16 03:14:45;;;;;;;9.60;3.00;;;9.80;99.90;;;;;;5037848;28;20026;-71
2021/05/16 03:17:12;;;;;;;15.60;3.15;;;9.80;99.90;;;;;;5037994;28;20033;-71
2021/05/16 03:19:40;;;;;;;10.15;3.90;;;9.80;99.90;;;;;;5038423;28;20017;-71
2021/05/16 03:22:09;;;;;;;9.40;3.85;;;9.80;99.90;;;;;;5020932;28;20022;-71
2021/05/16 03:24:38;;;;;;;7.53;3.38;;;9.80;99.90;;;;;;5038302;28;20045;-71
2021/05/16 03:27:05;;;;;;;10.40;3.78;;;9.80;99.90;;;;;;5038332;28;20034;-71
2021/05/16 03:29:34;;;;;;;10.77;4.32;;;9.80;99.90;;;;;;5038252;28;20100;-71
2021/05/16 03:32:02;;;;;;;7.53;3.55;;;9.80;99.90;;;;;;5037820;28;20050;-71
2021/05/16 03:34:30;;;;;;;8.82;3.60;;;9.80;99.90;;;;;;5037174;28;20021;-71
2021/05/16 03:36:58;;;;;;;8.02;3.30;;;9.90;99.90;;;;;;5037247;28;20017;-71
2021/05/16 03:39:26;;;;;;;13.88;3.70;;;9.90;99.90;;;;;;5036406;28;20488;-71
2021/05/16 03:58:51;;;;;;;8.95;3.78;;;9.90;99.90;;;;;;5037849;28;20041;-71
2021/05/16 04:05:16;;;;;;;10.05;3.47;;;10.00;99.90;;;;;;5037992;28;20137;-71
2021/05/16 04:12:04;;;;;;;10.48;3.92;;;10.00;99.90;;;;;;4937279;29;20143;-71
2021/05/16 04:21:36;;;;;;;7.95;3.60;;;10.10;99.90;;;;;;4937557;29;20119;-72
2021/05/16 04:34:42;;;;;;;16.67;4.35;;;10.00;99.90;;;;;;3408911;29;22062;-71
2021/05/16 04:40:52;;;;;;;10.52;3.60;;;10.10;99.90;;;;;;4937616;29;20027;-71
2021/05/16 04:44:03;;;;;;;;;;;10.00;99.90;;;;;;4956742;29;20463;-71
2021/05/16 04:46:40;;;;;;;8.02;3.45;;;10.10;99.90;;;;;;5010737;28;19905;-71
2021/05/16 04:49:24;;;;;;;10.80;3.75;;;10.10;99.90;;;;;;5016380;28;20030;-71
2021/05/16 05:02:20;;;;;;;9.60;3.35;;;10.50;99.90;;;;;;5018957;28;20313;-71
2021/05/16 05:04:58;;;;;;;9.68;3.58;;;10.60;99.90;;;;;;5021155;28;20029;-71
2021/05/16 05:07:32;;;;;;;13.73;3.33;;;10.60;99.90;;;;;;5021350;28;20018;-71
2021/05/16 05:10:07;;;;;;;10.18;3.42;;;10.70;99.90;;;;;;5021115;28;20030;-71
2021/05/16 05:13:00;;;;;;;10.55;3.20;;;10.70;99.90;;;;;;5020545;28;20057;-71
2021/05/16 05:15:36;;;;;;;10.13;3.53;;;10.70;99.90;;;;;;5002710;28;20034;-71
2021/05/16 05:18:19;;;;;;;17.60;4.00;;;10.80;99.90;;;;;;5002378;28;20322;-71
2021/05/16 05:21:31;;;;;;;12.18;3.50;;;10.80;99.90;;;;;;5020382;28;20106;-72
2021/05/16 05:28:21;;;;;;;6.40;2.42;;;10.80;99.90;;;;;;4978924;28;20078;-71
2021/05/16 06:19:04;;;;;;;14.77;2.47;;;11.20;99.90;;;;;;5032629;28;20044;-71
2021/05/16 06:24:57;;;;;;;11.90;2.92;;;11.20;99.90;;;;;;5038790;28;20029;-72
2021/05/16 06:27:53;;;;;;;13.32;2.53;;;11.30;99.90;;;;;;5038682;28;20030;-72
2021/05/16 06:31:07;;;;;;;15.50;2.70;;;11.30;99.90;;;;;;5021125;28;20116;-74
2021/05/16 06:40:32;;;;;;;10.88;2.47;;;11.60;99.90;;;;;;4982604;28;20045;-75
2021/05/16 06:47:11;;;;;;;7.28;2.63;;;11.80;99.90;;;;;;5038640;28;20037;-72
2021/05/16 06:50:00;;;;;;;13.70;2.95;;;11.80;99.90;;;;;;5018741;28;20315;-74
2021/05/16 06:52:43;;;;;;;13.88;1.95;;;11.90;99.90;;;;;;5020391;28;20037;-74
2021/05/16 06:55:11;;;;;;;9.45;1.80;;;12.00;99.90;;;;;;5020232;28;20397;-74
2021/05/16 06:57:41;;;;;;;14.23;1.77;;;12.10;99.90;;;;;;5038009;28;20029;-73
2021/05/16 07:00:12;;;;;;;11.32;1.90;;;12.10;99.90;;;;;;5020001;28;20028;-72
2021/05/16 07:02:39;;;;;;;12.05;2.33;;;12.10;99.90;;;;;;5020211;28;20025;-73
2021/05/16 07:05:08;;;;;;;11.02;1.88;;;12.20;99.90;;;;;;5021073;28;20021;-74
2021/05/16 07:07:36;;;;;;;8.02;1.90;;;12.10;99.90;;;;;;5039019;28;20056;-81
2021/05/16 07:10:04;;;;;;;11.93;1.45;;;12.20;99.90;;;;;;5038821;28;20428;-77
2021/05/16 07:12:32;;;;;;;11.70;2.08;;;12.20;99.90;;;;;;5038809;28;20068;-72
2021/05/16 07:15:00;;;;;;;12.75;2.28;;;12.30;99.90;;;;;;5037372;28;20052;-73
2021/05/16 07:17:28;;;;;;;9.32;1.70;;;12.40;99.90;;;;;;5038261;28;20455;-73
2021/05/16 07:19:55;;;;;;;13.55;2.53;;;12.40;99.90;;;;;;5019978;28;20041;-73
2021/05/16 07:22:22;;;;;;;12.85;1.55;;;12.50;99.90;;;;;;5019933;28;20025;-80
2021/05/16 07:24:50;;;;;;;13.88;1.60;;;12.50;99.90;;;;;;5019850;28;20017;-72
2021/05/16 07:27:18;;;;;;;12.35;1.90;;;12.60;99.90;;;;;;5019913;28;20326;-73
2021/05/16 07:29:48;;;;;;;10.77;1.60;;;12.70;99.90;;;;;;5037165;28;20025;-73
2021/05/16 07:32:16;;;;;;;11.30;2.10;;;12.90;99.90;;;;;;5037049;28;20044;-72
2021/05/16 07:34:44;;;;;;;12.38;2.20;;;13.00;99.90;;;;;;5037216;28;20026;-73
2021/05/16 07:37:12;;;;;;;14.57;1.92;;;13.10;99.90;;;;;;5037720;28;20424;-73
2021/05/16 07:39:40;;;;;;;9.63;1.73;;;13.30;99.90;;;;;;5020226;28;20026;-73
2021/05/16 07:42:09;;;;;;;10.10;1.60;;;13.50;99.90;;;;;;5037763;28;20021;-74
2021/05/16 07:44:36;;;;;;;13.55;2.25;;;13.60;99.90;;;;;;5020410;28;20040;-74
2021/05/16 07:47:04;;;;;;;13.98;2.40;;;13.60;99.90;;;;;;5038033;28;20029;-73
2021/05/16 07:49:32;;;;;;;10.40;2.05;;;13.70;99.90;;;;;;5038812;28;20298;-73
2021/05/16 07:52:00;;;;;;;10.63;2.10;;;13.70;99.90;;;;;;5037650;28;20022;-74
2021/05/16 07:54:28;;;;;;;9.23;2.40;;;13.60;99.90;;;;;;5019248;28;20029;-72
2021/05/16 07:56:58;;;;;;;10.80;2.40;;;13.70;99.90;;;;;;5036913;28;20481;-72
2021/05/16 07:59:26;;;;;;;9.88;1.42;;;13.80;99.90;;;;;;5019127;28;20128;-73
2021/05/16 08:01:54;;;;;;;7.28;1.48;;;13.90;99.90;;;;;;5037368;28;20021;-73
2021/05/16 08:04:22;;;;;;;11.15;2.05;;;14.00;99.90;;;;;;5036639;28;20056;-73
2021/05/16 08:06:50;;;;;;;13.85;3.95;;;14.20;99.90;;;;;;5037183;28;20056;-73
2021/05/16 08:09:18;;;;;;;6.90;1.73;;;14.30;99.90;;;;;;5036605;28;20025;-72
2021/05/16 08:11:45;;;;;;;9.85;1.50;;;14.30;99.90;;;;;;5037490;28;20495;-72
2021/05/16 08:14:13;;;;;;;11.02;3.22;;;14.40;99.90;;;;;;5019932;28;20025;-73
2021/05/16 08:16:41;;;;;;;10.57;1.58;;;14.40;99.30;;;;;;5020007;28;20044;-72
2021/05/16 08:19:09;;;;;;;17.35;1.48;;;14.40;99.40;;;;;;5037397;28;20381;-72
2021/05/16 16:51:33;;;;;;;12.38;4.90;;;18.80;64.50;;;;;;5177562;27;20312;-67
2021/05/16 16:54:01;;;;;;;4.22;0.80;;;18.40;65.00;;;;;;5138898;27;20031;-68
2021/05/16 16:56:29;;;;;;;8.23;3.22;;;18.30;66.20;;;;;;5155590;27;20023;-68
2021/05/16 16:58:57;;;;;;;6.28;2.17;;;18.10;68.10;;;;;;5155535;27;20451;-68
2021/05/16 17:01:25;;;;;;;4.28;1.15;;;17.90;69.50;;;;;;5155441;27;20023;-68
2021/05/16 17:03:53;;;;;;;1.88;0.73;;;17.80;69.50;;;;;;5153995;27;20019;-67
2021/05/16 17:06:22;;;;;;;2.42;1.30;;;17.70;68.50;;;;;;5135622;28;20382;-67
2021/05/16 17:08:49;;;;;;;6.78;3.33;;;17.60;70.90;;;;;;5117335;28;20296;-73
2021/05/16 17:11:18;;;;;;;5.53;1.80;;;17.70;71.20;;;;;;5135388;28;20114;-67
2021/05/16 17:13:45;;;;;;;4.10;1.83;;;17.80;69.00;;;;;;5135553;28;20046;-67
2021/05/16 17:16:16;;;;;;;6.55;1.73;;;17.90;67.50;;;;;;5135454;28;20113;-67
2021/05/16 17:18:44;;;;;;;3.42;0.77;;;18.00;67.70;;;;;;5117174;27;20111;-67
2021/05/16 17:21:13;;;;;;;4.10;0.90;;;18.00;68.60;;;;;;5135856;28;20070;-67
2021/05/16 17:23:41;;;;;;;3.30;0.80;;;18.00;67.60;;;;;;5135611;28;20406;-67
2021/05/16 17:26:09;;;;;;;4.22;1.00;;;18.00;65.40;;;;;;5135302;28;20308;-67
2021/05/16 17:28:37;;;;;;;3.83;1.00;;;18.00;67.70;;;;;;5135678;28;20020;-70
2021/05/16 17:31:06;;;;;;;4.70;0.95;;;17.80;66.30;;;;;;5135002;28;20097;-67
2021/05/16 17:33:33;;;;;;;3.67;1.20;;;17.80;66.70;;;;;;5134220;28;20089;-67
2021/05/16 17:36:01;;;;;;;1.70;0.98;;;17.70;66.20;;;;;;5115918;28;20020;-67
2021/05/16 17:38:32;;;;;;;5.13;1.35;;;17.60;67.20;;;;;;5134066;28;20030;-67
2021/05/16 17:41:00;;;;;;;4.55;1.10;;;17.60;67.30;;;;;;5134007;28;20334;-67
2021/05/16 17:43:28;;;;;;;5.72;1.15;;;17.60;66.30;;;;;;5134212;28;20033;-67
2021/05/16 17:45:56;;;;;;;3.05;1.13;;;17.50;66.60;;;;;;5135890;28;20034;-67
2021/05/16 17:48:24;;;;;;;4.07;1.55;;;17.50;67.10;;;;;;5134856;28;20038;-67
2021/05/16 17:50:52;;;;;;;4.57;1.55;;;17.40;67.30;;;;;;5112925;28;20431;-67
2021/05/16 17:53:30;;;;;;;4.38;0.65;;;17.30;67.80;;;;;;5114222;28;20020;-67
2021/05/16 17:55:59;;;;;;;2.35;1.00;;;17.20;68.40;;;;;;5114457;28;20024;-67
2021/05/16 17:58:26;;;;;;;2.70;0.63;;;17.10;68.70;;;;;;5113141;28;20396;-67
2021/05/16 18:00:54;;;;;;;4.20;1.20;;;16.90;68.80;;;;;;5110839;28;20023;-67
2021/05/16 18:03:22;;;;;;;4.47;0.80;;;16.80;68.80;;;;;;5100839;28;20021;-67
2021/05/16 18:05:50;;;;;;;3.08;1.05;;;16.60;71.10;;;;;;5099267;28;20035;-67
2021/05/16 18:08:17;;;;;;;2.95;0.80;;;16.50;71.30;;;;;;5100598;28;20039;-67
2021/05/16 18:10:45;;;;;;;7.28;1.10;;;16.40;71.20;;;;;;5100321;28;20020;-67
2021/05/16 18:13:13;;;;;;;3.25;1.27;;;16.30;71.40;;;;;;5099334;28;20092;-67
2021/05/16 18:15:43;;;;;;;2.92;0.88;;;16.10;71.60;;;;;;5099402;28;20058;-67
2021/05/16 18:18:11;;;;;;;2.60;0.68;;;16.00;72.40;;;;;;5098403;28;20023;-67
2021/05/16 18:20:39;;;;;;;1.70;0.65;;;15.90;73.30;;;;;;5099666;28;20024;-67
2021/05/16 18:23:06;;;;;;;2.55;0.50;;;15.70;74.20;;;;;;5099832;28;20031;-67
2021/05/16 18:25:35;;;;;;;3.50;0.63;;;15.70;74.70;;;;;;5100017;28;20111;-67
2021/05/16 18:28:03;;;;;;;1.85;0.50;;;15.60;75.20;;;;;;5100203;28;20020;-67
2021/05/16 18:30:31;;;;;;;4.95;0.68;;;15.50;75.20;;;;;;5100435;28;20035;-67
2021/05/16 18:32:59;;;;;;;2.28;0.52;;;15.40;75.90;;;;;;5099972;28;20016;-67
2021/05/16 18:35:27;;;;;;;7.78;0.95;;;15.30;76.70;;;;;;5098781;28;20016;-67
2021/05/16 18:37:56;;;;;;;2.63;0.70;;;15.20;77.40;;;;;;5099995;28;20407;-67
2021/05/16 18:40:24;;;;;;;5.20;0.80;;;15.20;78.10;;;;;;5100580;28;20111;-67
2021/05/16 18:42:53;;;;;;;4.38;1.10;;;15.10;78.70;;;;;;5100073;28;20025;-67
2021/05/16 18:45:24;;;;;;;1.65;0.50;;;15.00;78.90;;;;;;5100231;28;20034;-67
2021/05/16 18:47:55;;;;;;;1.90;0.70;;;14.90;78.80;;;;;;5099718;28;20034;-67
2021/05/16 18:50:23;;;;;;;3.90;0.73;;;14.80;77.90;;;;;;5109911;28;20047;-67
2021/05/16 18:52:51;;;;;;;2.95;0.70;;;14.60;78.50;;;;;;5118981;28;20023;-67
2021/05/16 18:55:20;;;;;;;2.85;0.73;;;14.40;81.20;;;;;;5119508;28;20077;-67
2021/05/16 18:57:48;;;;;;;5.10;1.50;;;14.20;82.50;;;;;;5100882;28;20027;-67
2021/05/16 19:00:16;;;;;;;3.22;0.80;;;14.10;83.60;;;;;;5100702;28;20023;-67
2021/05/16 19:02:44;;;;;;;1.63;0.70;;;14.00;84.40;;;;;;5119804;28;20474;-67
2021/05/16 19:05:13;;;;;;;2.10;0.70;;;13.80;86.10;;;;;;5119798;28;20311;-67
2021/05/16 19:07:41;;;;;;;5.47;0.90;;;13.70;87.10;;;;;;5101533;28;20437;-67
2021/05/16 19:10:11;;;;;;;2.45;0.82;;;13.50;87.90;;;;;;5119402;28;20054;-67
2021/05/16 19:12:39;;;;;;;6.65;1.48;;;13.40;88.80;;;;;;5119087;28;20054;-66
2021/05/16 19:15:11;;;;;;;2.22;0.80;;;13.30;89.90;;;;;;5119115;28;20102;-67
2021/05/16 19:17:39;;;;;;;3.28;0.80;;;13.20;90.40;;;;;;5119477;28;20047;-67
2021/05/16 19:20:08;;;;;;;8.63;1.05;;;13.00;90.90;;;;;;5119542;28;20028;-67
2021/05/16 19:22:36;;;;;;;6.63;0.82;;;12.90;91.40;;;;;;5119614;28;20046;-67
2021/05/16 19:25:06;;;;;;;1.50;0.63;;;12.80;91.90;;;;;;5101210;28;20030;-67
2021/05/16 19:27:35;;;;;;;4.80;0.75;;;12.80;92.80;;;;;;5101297;28;20055;-67
2021/05/16 19:30:05;;;;;;;7.30;1.13;;;12.70;93.60;;;;;;5119337;28;20062;-67
2021/05/16 19:32:33;;;;;;;2.90;1.20;;;12.70;94.50;;;;;;5118250;28;20353;-67
2021/05/16 19:35:01;;;;;;;2.30;0.68;;;12.60;95.10;;;;;;5118704;28;20099;-67
2021/05/16 19:37:29;;;;;;;3.08;1.00;;;12.60;95.90;;;;;;5118300;28;20046;-67
2021/05/16 19:39:57;;;;;;;2.25;0.70;;;12.60;96.80;;;;;;5118332;28;20027;-67
2021/05/16 19:42:24;;;;;;;1.92;0.60;;;12.60;97.20;;;;;;5119174;28;20030;-67
2021/05/16 19:44:52;;;;;;;3.33;1.00;;;12.60;97.60;;;;;;5118889;28;20426;-68
2021/05/16 19:47:20;;;;;;;2.55;0.80;;;12.50;98.60;;;;;;5100813;28;20031;-67
2021/05/16 19:49:49;;;;;;;3.30;0.77;;;12.40;99.50;;;;;;5118513;28;20051;-67
2021/05/16 19:52:18;;;;;;;1.83;0.65;;;12.40;99.90;;;;;;5118679;28;20043;-67
2021/05/16 19:54:47;;;;;;;4.70;1.00;;;12.30;99.90;;;;;;5118949;28;20027;-67
2021/05/16 19:57:15;;;;;;;7.88;2.05;;;12.20;99.90;;;;;;5118808;28;20024;-67
2021/05/16 19:59:43;;;;;;;4.70;1.90;;;12.20;99.90;;;;;;5119055;28;20020;-67
2021/05/16 20:02:11;;;;;;;6.75;1.50;;;12.20;99.90;;;;;;5118497;28;20049;-67
2021/05/16 20:04:39;;;;;;;3.17;0.80;;;12.10;99.90;;;;;;5118813;28;20016;-67
2021/05/16 20:07:07;;;;;;;2.25;1.00;;;12.10;99.90;;;;;;5118529;28;20026;-66
2021/05/16 20:09:34;;;;;;;3.70;0.95;;;12.10;99.90;;;;;;5101044;28;20038;-67
2021/05/16 20:12:02;;;;;;;3.47;1.02;;;12.00;99.90;;;;;;5117825;28;20064;-67
2021/05/16 20:14:32;;;;;;;2.45;0.70;;;12.00;99.90;;;;;;5117946;28;20337;-67
2021/05/16 20:16:59;;;;;;;1.65;0.82;;;12.00;99.90;;;;;;5117601;28;20098;-67
2021/05/16 20:19:27;;;;;;;4.45;0.82;;;11.90;99.90;;;;;;5117241;28;20102;-67
2021/05/16 20:21:56;;;;;;;5.45;0.70;;;11.80;99.90;;;;;;5117333;28;20415;-67
2021/05/16 20:24:24;;;;;;;4.97;1.02;;;11.70;99.90;;;;;;5118285;28;20020;-67
2021/05/16 20:26:52;;;;;;;6.75;1.10;;;11.60;99.90;;;;;;5100253;28;20022;-67
2021/05/16 20:29:27;;;;;;;5.53;0.90;;;11.50;99.90;;;;;;5118570;28;20311;-67
2021/05/16 20:31:59;;;;;;;4.15;1.00;;;11.50;99.90;;;;;;5118891;28;20069;-67
2021/05/16 20:34:27;;;;;;;6.07;1.15;;;11.40;99.90;;;;;;5117970;28;20028;-67
2021/05/16 20:36:55;;;;;;;6.93;1.55;;;11.40;99.90;;;;;;5117982;28;20026;-67
2021/05/16 20:39:23;;;;;;;5.25;1.00;;;11.40;99.90;;;;;;5099960;28;20020;-67
2021/05/16 20:41:55;;;;;;;5.90;0.93;;;11.30;99.90;;;;;;5118592;28;20417;-67
2021/05/16 20:44:24;;;;;;;5.03;0.90;;;11.20;99.90;;;;;;5118458;28;20028;-67
2021/05/16 20:46:52;;;;;;;2.72;1.17;;;11.10;99.90;;;;;;5100378;28;20035;-66
2021/05/16 20:49:20;;;;;;;6.88;1.95;;;11.00;99.90;;;;;;5118270;28;20350;-67
2021/05/16 20:51:47;;;;;;;8.93;1.45;;;10.90;99.90;;;;;;5117064;28;20502;-67
2021/05/16 20:54:16;;;;;;;9.68;3.95;;;10.80;99.90;;;;;;5117168;28;20069;-67
2021/05/16 20:56:43;;;;;;;3.72;1.30;;;10.70;99.90;;;;;;5117076;28;20043;-67
2021/05/16 20:59:11;;;;;;;7.47;1.17;;;10.70;99.90;;;;;;5116856;28;20370;-67
2021/05/16 21:01:39;;;;;;;4.88;0.73;;;10.70;99.90;;;;;;5117693;28;20086;-67
2021/05/16 21:04:07;;;;;;;3.10;0.98;;;10.70;99.90;;;;;;5117675;28;20020;-66
2021/05/16 21:06:39;;;;;;;4.97;0.85;;;10.70;99.90;;;;;;5118182;28;20017;-67
2021/05/16 21:09:08;;;;;;;3.60;0.90;;;10.60;99.90;;;;;;5117669;28;20022;-67
2021/05/16 21:11:36;;;;;;;1.25;0.52;;;10.60;99.90;;;;;;5118210;28;20020;-67
2021/05/16 21:14:03;;;;;;;5.15;0.95;;;10.50;99.90;;;;;;5117697;28;20099;-66
2021/05/16 21:16:31;;;;;;;2.33;0.90;;;10.50;99.90;;;;;;5118420;28;20023;-67
2021/05/16 21:18:59;;;;;;;2.63;0.90;;;10.40;99.90;;;;;;5117561;28;20020;-66
2021/05/16 21:21:27;;;;;;;2.10;0.70;;;10.30;99.90;;;;;;5117691;28;20043;-67
2021/05/16 21:23:55;;;;;;;3.03;1.30;;;10.30;99.90;;;;;;5117653;28;20032;-66
2021/05/16 21:26:26;;;;;;;1.83;0.82;;;10.20;99.90;;;;;;5117661;28;20385;-67
2021/05/16 21:28:54;;;;;;;3.90;1.08;;;10.20;99.90;;;;;;5117801;28;20103;-67
2021/05/16 21:31:22;;;;;;;1.90;0.88;;;10.20;99.90;;;;;;5116780;28;20022;-67
2021/05/16 21:33:50;;;;;;;4.90;0.60;;;10.10;99.90;;;;;;5117072;28;20094;-67
2021/05/16 21:36:17;;;;;;;5.40;0.90;;;10.00;99.90;;;;;;5117568;28;20024;-67
2021/05/16 21:38:45;;;;;;;6.65;1.08;;;10.00;99.90;;;;;;5120915;28;20015;-67
2021/05/16 21:41:13;;;;;;;8.30;1.42;;;10.00;99.90;;;;;;5120342;28;20027;-66
2021/05/16 21:43:40;;;;;;;4.97;0.98;;;9.90;99.90;;;;;;5121183;28;20292;-67
2021/05/16 21:46:08;;;;;;;3.33;1.17;;;9.90;99.90;;;;;;5121728;28;20411;-66
2021/05/16 21:48:35;;;;;;;10.07;1.40;;;9.80;99.90;;;;;;5121685;28;20030;-67
2021/05/16 21:51:03;;;;;;;3.22;1.45;;;9.80;99.90;;;;;;5099289;28;20040;-67
2021/05/16 21:53:31;;;;;;;3.92;1.55;;;9.80;99.90;;;;;;5101206;28;20309;-67
2021/05/16 21:55:58;;;;;;;3.90;1.48;;;9.70;99.90;;;;;;5100639;28;20020;-67
2021/05/16 21:58:26;;;;;;;3.65;0.80;;;9.60;99.90;;;;;;5100585;28;20016;-67
2021/05/16 22:00:55;;;;;;;4.07;0.75;;;9.60;99.90;;;;;;5101251;28;20300;-67
2021/05/16 22:03:23;;;;;;;3.13;0.75;;;9.50;99.90;;;;;;5100687;28;20073;-67
2021/05/16 22:05:52;;;;;;;2.35;0.70;;;9.40;99.90;;;;;;5100366;28;20473;-67
2021/05/16 22:08:20;;;;;;;4.35;0.93;;;9.30;99.90;;;;;;5100593;28;20028;-67
2021/05/16 22:10:48;;;;;;;3.05;0.65;;;9.30;99.90;;;;;;5099718;28;20024;-67
2021/05/16 22:13:15;;;;;;;4.47;0.70;;;9.20;99.90;;;;;;5099913;28;20433;-67
2021/05/16 22:15:43;;;;;;;5.88;0.80;;;9.20;99.90;;;;;;5099756;28;20360;-67
2021/05/16 22:18:11;;;;;;;2.17;0.95;;;9.20;99.90;;;;;;5099217;28;20312;-66
2021/05/16 22:20:40;;;;;;;3.38;1.10;;;9.10;99.90;;;;;;5099200;28;20031;-67
2021/05/16 22:23:08;;;;;;;1.48;0.50;;;9.20;99.90;;;;;;5100443;28;20371;-67
2021/05/16 22:25:36;;;;;;;3.95;0.75;;;9.10;99.90;;;;;;5100870;28;20092;-67
2021/05/16 22:28:05;;;;;;;2.97;0.80;;;9.10;99.90;;;;;;5100561;28;20028;-66
2021/05/16 22:30:33;;;;;;;1.65;0.60;;;9.10;99.90;;;;;;5100531;28;20056;-67
2021/05/16 22:33:07;;;;;;;4.18;1.17;;;9.10;99.90;;;;;;5099967;28;20463;-67
2021/05/16 22:35:36;;;;;;;5.97;0.70;;;9.10;99.90;;;;;;5100019;28;20084;-67
2021/05/16 22:38:05;;;;;;;1.67;1.02;;;9.10;99.90;;;;;;5099771;28;20028;-67
2021/05/16 22:40:34;;;;;;;2.42;0.63;;;9.10;99.90;;;;;;5115715;28;20027;-67
2021/05/16 22:43:02;;;;;;;1.55;0.60;;;9.00;99.90;;;;;;5100554;28;20372;-66
2021/05/16 22:45:31;;;;;;;1.20;0.68;;;8.90;99.90;;;;;;5115620;28;20024;-67
2021/05/16 22:47:58;;;;;;;4.05;0.50;;;8.90;99.90;;;;;;5099710;28;20031;-67
2021/05/16 22:50:26;;;;;;;3.40;0.45;;;8.80;99.90;;;;;;5109844;28;20039;-67
2021/05/16 22:52:54;;;;;;;0.93;0.52;;;8.80;99.90;;;;;;5119636;28;20028;-67
2021/05/16 22:55:22;;;;;;;1.15;0.55;;;8.70;99.90;;;;;;5119771;28;20286;-67
2021/05/16 22:57:50;;;;;;;1.13;0.40;;;8.70;99.90;;;;;;5119106;28;20024;-67
2021/05/16 23:00:40;;;;;;;1.30;0.50;;;8.70;99.90;;;;;;5119123;28;20020;-67
2021/05/16 23:03:08;;;;;;;4.75;0.60;;;8.60;99.90;;;;;;5119543;28;20034;-67
2021/05/16 23:05:36;;;;;;;1.25;0.40;;;8.60;99.90;;;;;;5120192;28;20019;-67
2021/05/16 23:08:05;;;;;;;3.00;0.55;;;8.50;99.90;;;;;;5119847;28;20032;-67
2021/05/16 23:10:36;;;;;;;3.55;0.80;;;8.50;99.90;;;;;;5119558;28;20319;-67
2021/05/16 23:13:05;;;;;;;0.93;0.40;;;8.40;99.90;;;;;;5101644;28;20300;-67
2021/05/16 23:15:33;;;;;;;11.77;1.58;;;8.30;99.90;;;;;;5120045;28;20027;-67
2021/05/16 23:18:04;;;;;;;2.55;0.60;;;8.30;99.90;;;;;;5120162;28;20027;-66
2021/05/16 23:20:34;;;;;;;3.85;0.85;;;8.20;99.90;;;;;;5119186;28;20051;-67
2021/05/16 23:23:02;;;;;;;4.97;0.90;;;8.10;99.90;;;;;;5119628;28;20024;-67
2021/05/16 23:25:30;;;;;;;1.63;0.60;;;8.00;99.90;;;;;;5119338;28;20035;-67
2021/05/16 23:27:57;;;;;;;3.25;0.60;;;7.90;99.90;;;;;;5119963;28;20030;-67
2021/05/16 23:30:26;;;;;;;5.22;0.75;;;7.80;99.90;;;;;;5119134;28;20019;-67
2021/05/16 23:32:57;;;;;;;2.13;0.70;;;7.80;99.90;;;;;;5118829;28;20284;-67
2021/05/16 23:35:25;;;;;;;4.05;0.52;;;7.80;99.90;;;;;;5118075;28;20149;-66